createdAt,value
2022-10-21T00:01:00.391Z,99882.00
2022-10-21T00:03:28.633Z,99881.00
2022-10-21T00:05:56.738Z,99883.00
2022-10-21T00:08:25.160Z,99895.00
2022-10-21T00:10:58.951Z,99894.00
2022-10-21T00:13:28.720Z,99894.00
2022-10-21T00:16:01.759Z,99903.00
2022-10-21T00:18:30.748Z,99888.00
2022-10-21T00:20:59.007Z,99875.00
2022-10-21T00:23:26.896Z,99869.00
2022-10-21T00:26:01.851Z,99862.00
2022-10-21T00:28:29.670Z,99854.00
2022-10-21T00:30:58.549Z,99857.00
2022-10-21T00:33:27.226Z,99860.00
2022-10-21T00:35:57.805Z,99857.00
2022-10-21T00:38:25.916Z,99855.00
2022-10-21T00:40:53.642Z,99846.00
2022-10-21T00:43:21.869Z,99843.00
2022-10-21T00:45:52.937Z,99844.00
2022-10-21T00:48:33.361Z,99832.00
2022-10-21T00:51:12.154Z,99840.00
2022-10-21T00:53:43.028Z,99837.00
2022-10-21T00:56:16.574Z,99834.00
2022-10-21T00:58:46.073Z,99826.00
2022-10-21T01:01:17.844Z,99810.00
2022-10-21T01:03:48.902Z,99813.00
2022-10-21T01:06:17.180Z,99819.00
2022-10-21T01:08:45.174Z,99809.00
2022-10-21T01:11:15.855Z,99805.00
2022-10-21T01:14:09.050Z,99799.00
2022-10-21T01:17:04.058Z,99813.00
2022-10-21T01:19:48.494Z,99795.00
2022-10-21T01:22:32.738Z,99796.00
2022-10-21T01:25:23.599Z,99792.00
2022-10-21T01:28:13.568Z,99791.00
2022-10-21T01:30:54.119Z,99793.00
2022-10-21T01:33:49.903Z,99791.00
2022-10-21T01:36:27.996Z,99784.00
2022-10-21T01:39:03.693Z,99784.00
2022-10-21T01:41:42.655Z,99782.00
2022-10-21T01:44:27.770Z,99777.00
2022-10-21T01:47:03.241Z,99775.00
2022-10-21T01:49:34.665Z,99779.00
2022-10-21T01:52:03.462Z,99783.00
2022-10-21T01:54:44.107Z,99772.00
2022-10-21T01:57:14.996Z,99766.00
2022-10-21T01:59:46.658Z,99771.00
2022-10-21T02:02:16.153Z,99754.00
2022-10-21T02:04:45.963Z,99753.00
2022-10-21T02:07:13.719Z,99750.00
2022-10-21T02:09:41.558Z,99748.00
2022-10-21T02:12:09.899Z,99749.00
2022-10-21T02:14:44.511Z,99739.00
2022-10-21T02:17:14.753Z,99726.00
2022-10-21T02:19:42.559Z,99712.00
2022-10-21T02:22:11.809Z,99717.00
2022-10-21T02:24:54.977Z,99718.00
2022-10-21T02:27:23.180Z,99712.00
2022-10-21T02:29:52.792Z,99720.00
2022-10-21T02:32:42.742Z,99725.00
2022-10-21T02:35:24.534Z,99738.00
2022-10-21T02:37:55.376Z,99737.00
2022-10-21T02:40:34.680Z,99742.00
2022-10-21T02:43:12.462Z,99731.00
2022-10-21T02:45:40.748Z,99729.00
2022-10-21T02:48:08.633Z,99721.00
2022-10-21T02:50:36.455Z,99722.00
2022-10-21T02:53:04.664Z,99726.00
2022-10-21T02:55:32.525Z,99710.00
2022-10-21T02:58:00.555Z,99713.00
2022-10-21T03:00:32.075Z,99707.00
2022-10-21T03:03:00.905Z,99701.00
2022-10-21T03:05:28.810Z,99703.00
2022-10-21T03:07:56.673Z,99701.00
2022-10-21T03:10:24.393Z,99697.00
2022-10-21T03:12:52.112Z,99693.00
2022-10-21T03:15:19.886Z,99700.00
2022-10-21T03:17:47.916Z,99693.00
2022-10-21T03:20:16.185Z,99693.00
2022-10-21T03:22:46.983Z,99685.00
2022-10-21T03:25:14.807Z,99682.00
2022-10-21T03:27:42.667Z,99678.00
2022-10-21T03:30:10.991Z,99678.00
2022-10-21T03:32:39.183Z,99679.00
2022-10-21T03:35:07.750Z,99660.00
2022-10-21T03:37:35.488Z,99671.00
2022-10-21T03:40:05.443Z,99663.00
2022-10-21T03:42:36.696Z,99648.00
2022-10-21T03:45:05.088Z,99644.00
2022-10-21T03:47:32.958Z,99637.00
2022-10-21T03:50:00.761Z,99647.00
2022-10-21T03:52:30.038Z,99632.00
2022-10-21T03:54:57.820Z,99637.00
2022-10-21T03:57:25.558Z,99631.00
2022-10-21T03:59:53.269Z,99629.00
2022-10-21T04:02:20.958Z,99629.00
2022-10-21T04:04:48.774Z,99628.00
2022-10-21T04:07:16.762Z,99627.00
2022-10-21T04:09:44.573Z,99617.00
2022-10-21T04:12:12.799Z,99615.00
2022-10-21T04:14:40.782Z,99614.00
2022-10-21T04:17:08.658Z,99615.00
2022-10-21T04:19:36.680Z,99600.00
2022-10-21T04:22:05.539Z,99604.00
2022-10-21T04:24:33.425Z,99600.00
2022-10-21T04:27:01.297Z,99600.00
2022-10-21T04:29:29.124Z,99606.00
2022-10-21T04:31:56.928Z,99623.00
2022-10-21T04:34:24.777Z,99616.00
2022-10-21T04:36:52.627Z,99616.00
2022-10-21T04:39:20.380Z,99620.00
2022-10-21T04:41:50.061Z,99614.00
2022-10-21T04:44:17.824Z,99611.00
2022-10-21T04:46:45.683Z,99608.00
2022-10-21T04:49:13.584Z,99605.00
2022-10-21T04:51:41.270Z,99603.00
2022-10-21T04:54:08.891Z,99616.00
2022-10-21T04:56:36.573Z,99612.00
2022-10-21T04:59:04.437Z,99612.00
2022-10-21T05:01:32.365Z,99600.00
2022-10-21T05:04:00.249Z,99593.00
2022-10-21T05:06:28.015Z,99589.00
2022-10-21T05:08:58.675Z,99583.00
2022-10-21T05:11:26.417Z,99581.00
2022-10-21T05:13:54.157Z,99580.00
2022-10-21T05:16:22.237Z,99583.00
2022-10-21T05:18:50.148Z,99581.00
2022-10-21T05:21:17.952Z,99581.00
2022-10-21T05:23:45.793Z,99577.00
2022-10-21T05:26:13.526Z,99581.00
2022-10-21T05:28:41.380Z,99582.00
2022-10-21T05:31:09.231Z,99580.00
2022-10-21T05:33:36.960Z,99582.00
2022-10-21T05:36:08.745Z,99582.00
2022-10-21T05:38:36.910Z,99572.00
2022-10-21T05:41:04.919Z,99572.00
2022-10-21T05:43:32.732Z,99570.00
2022-10-21T05:46:00.499Z,99565.00
2022-10-21T05:48:28.371Z,99556.00
2022-10-21T05:50:56.865Z,99560.00
2022-10-21T05:53:25.546Z,99570.00
2022-10-21T05:56:01.653Z,99578.00
2022-10-21T05:58:30.702Z,99570.00
2022-10-21T06:00:59.332Z,99580.00
2022-10-21T06:03:30.205Z,99575.00
2022-10-21T06:05:59.304Z,99569.00
2022-10-21T06:08:27.662Z,99563.00
2022-10-21T06:11:14.602Z,99564.00
2022-10-21T06:13:42.820Z,99564.00
2022-10-21T06:16:11.349Z,99561.00
2022-10-21T06:18:39.914Z,99549.00
2022-10-21T06:21:08.453Z,99557.00
2022-10-21T06:23:36.614Z,99562.00
2022-10-21T06:26:05.521Z,99563.00
2022-10-21T06:28:35.482Z,99565.00
2022-10-21T06:31:03.914Z,99563.00
2022-10-21T06:33:31.733Z,99566.00
2022-10-21T06:35:59.741Z,99572.00
2022-10-21T06:38:27.547Z,99563.00
2022-10-21T06:41:02.885Z,99553.00
2022-10-21T06:43:31.408Z,99567.00
2022-10-21T06:46:06.881Z,99585.00
2022-10-21T06:48:35.522Z,99589.00
2022-10-21T06:51:10.204Z,99593.00
2022-10-21T06:53:39.405Z,99590.00
2022-10-21T06:56:10.126Z,99592.00
2022-10-21T06:58:39.118Z,99591.00
2022-10-21T07:01:21.491Z,99595.00
2022-10-21T07:03:59.424Z,99593.00
2022-10-21T07:06:27.491Z,99598.00
2022-10-21T07:08:59.217Z,99600.00
2022-10-21T07:11:28.351Z,99591.00
2022-10-21T07:13:56.273Z,99590.00
2022-10-21T07:16:26.525Z,99609.00
2022-10-21T07:18:55.452Z,99607.00
2022-10-21T07:21:25.774Z,99607.00
2022-10-21T07:23:56.606Z,99612.00
2022-10-21T07:26:28.192Z,99605.00
2022-10-21T07:28:58.765Z,99615.00
2022-10-21T07:31:27.697Z,99612.00
2022-10-21T07:33:55.768Z,99621.00
2022-10-21T07:36:26.046Z,99621.00
2022-10-21T07:38:56.140Z,99614.00
2022-10-21T07:41:27.923Z,99613.00
2022-10-21T07:43:56.145Z,99609.00
2022-10-21T07:46:24.278Z,99611.00
2022-10-21T07:48:52.522Z,99611.00
2022-10-21T07:51:26.961Z,99610.00
2022-10-21T07:53:59.547Z,99607.00
2022-10-21T07:56:30.090Z,99610.00
2022-10-21T07:58:58.148Z,99604.00
2022-10-21T08:01:26.263Z,99603.00
2022-10-21T08:03:54.862Z,99604.00
2022-10-21T08:06:24.028Z,99600.00
2022-10-21T08:08:51.951Z,99598.00
2022-10-21T08:11:27.581Z,99584.00
2022-10-21T08:13:56.288Z,99583.00
2022-10-21T08:16:24.782Z,99585.00
2022-10-21T08:18:52.361Z,99589.00
2022-10-21T08:21:20.216Z,99588.00
2022-10-21T08:23:47.998Z,99590.00
2022-10-21T08:26:16.912Z,99581.00
2022-10-21T08:28:44.926Z,99582.00
2022-10-21T08:31:17.914Z,99565.00
2022-10-21T08:33:46.152Z,99570.00
2022-10-21T08:36:25.233Z,99570.00
2022-10-21T08:38:53.475Z,99567.00
2022-10-21T08:41:54.341Z,99574.00
2022-10-21T08:44:38.348Z,99568.00
2022-10-21T08:47:18.159Z,99563.00
2022-10-21T08:50:02.875Z,99553.00
2022-10-21T08:52:42.782Z,99554.00
2022-10-21T08:55:24.306Z,99557.00
2022-10-21T08:57:56.084Z,99552.00
2022-10-21T09:00:27.972Z,99554.00
2022-10-21T09:03:02.880Z,99553.00
2022-10-21T09:05:56.011Z,99560.00
2022-10-21T09:08:38.869Z,99554.00
2022-10-21T09:11:26.965Z,99561.00
2022-10-21T09:14:22.480Z,99562.00
2022-10-21T09:16:52.997Z,99556.00
2022-10-21T09:19:39.969Z,99553.00
2022-10-21T09:22:37.069Z,99547.00
2022-10-21T09:25:18.524Z,99546.00
2022-10-21T09:28:01.912Z,99544.00
2022-10-21T09:30:30.092Z,99547.00
2022-10-21T09:33:00.253Z,99546.00
2022-10-21T09:35:48.426Z,99546.00
2022-10-21T09:38:26.176Z,99551.00
2022-10-21T09:41:03.465Z,99549.00
2022-10-21T09:43:31.608Z,99545.00
2022-10-21T09:45:59.730Z,99546.00
2022-10-21T09:51:43.850Z,99545.00
2022-10-21T09:54:18.888Z,99548.00
2022-10-21T09:57:18.971Z,99560.00
2022-10-21T09:59:58.580Z,99566.00
2022-10-21T10:02:31.144Z,99552.00
2022-10-21T10:04:59.045Z,99563.00
2022-10-21T10:07:26.884Z,99568.00
2022-10-21T10:09:54.940Z,99567.00
2022-10-21T10:12:25.899Z,99560.00
2022-10-21T10:14:55.749Z,99564.00
2022-10-21T10:17:29.485Z,99572.00
2022-10-21T10:20:07.619Z,99568.00
2022-10-21T10:22:38.044Z,99560.00
2022-10-21T10:25:19.287Z,99556.00
2022-10-21T10:28:02.837Z,99565.00
2022-10-21T10:30:48.987Z,99561.00
2022-10-21T10:33:33.015Z,99554.00
2022-10-21T10:36:05.559Z,99560.00
2022-10-21T10:38:45.293Z,99556.00
2022-10-21T10:41:15.769Z,99561.00
2022-10-21T10:43:51.798Z,99565.00
2022-10-21T10:46:38.661Z,99564.00
2022-10-21T10:49:15.685Z,99555.00
2022-10-21T10:51:47.855Z,99556.00
2022-10-21T10:54:19.794Z,99560.00
2022-10-21T10:57:01.098Z,99556.00
2022-10-21T10:59:42.770Z,99567.00
2022-10-21T11:02:10.736Z,99556.00
2022-10-21T11:04:41.871Z,99554.00
2022-10-21T11:07:26.242Z,99561.00
2022-10-21T11:09:57.597Z,99563.00
2022-10-21T11:12:27.326Z,99554.00
2022-10-21T11:14:59.922Z,99543.00
2022-10-21T11:17:50.574Z,99541.00
2022-10-21T11:20:31.867Z,99555.00
2022-10-21T11:23:19.433Z,99550.00
2022-10-21T11:25:56.188Z,99549.00
2022-10-21T11:28:30.880Z,99547.00
2022-10-21T11:31:16.923Z,99546.00
2022-10-21T11:34:02.574Z,99548.00
2022-10-21T11:36:55.701Z,99541.00
2022-10-21T11:39:29.492Z,99545.00
2022-10-21T11:42:09.147Z,99540.00
2022-10-21T11:44:55.278Z,99539.00
2022-10-21T11:47:35.291Z,99540.00
2022-10-21T11:50:24.734Z,99533.00
2022-10-21T11:53:12.245Z,99530.00
2022-10-21T11:56:04.996Z,99527.00
2022-10-21T11:58:39.249Z,99523.00
2022-10-21T12:01:07.185Z,99518.00
2022-10-21T12:03:59.273Z,99515.00
2022-10-21T12:06:49.471Z,99519.00
2022-10-21T12:09:39.499Z,99516.00
2022-10-21T12:12:20.026Z,99517.00
2022-10-21T12:14:58.012Z,99516.00
2022-10-21T12:17:26.519Z,99514.00
2022-10-21T12:20:11.958Z,99511.00
2022-10-21T12:22:40.092Z,99514.00
2022-10-21T12:25:17.027Z,99514.00
2022-10-21T12:27:47.662Z,99511.00
2022-10-21T12:30:36.257Z,99519.00
2022-10-21T12:33:22.834Z,99518.00
2022-10-21T12:35:56.374Z,99521.00
2022-10-21T12:38:48.520Z,99515.00
2022-10-21T12:41:25.821Z,99526.00
2022-10-21T12:44:04.775Z,99519.00
2022-10-21T12:46:44.265Z,99527.00
2022-10-21T12:49:28.717Z,99529.00
2022-10-21T12:52:02.686Z,99528.00
2022-10-21T12:54:43.736Z,99529.00
2022-10-21T12:57:23.191Z,99524.00
2022-10-21T12:59:51.066Z,99528.00
2022-10-21T13:02:25.925Z,99531.00
2022-10-21T13:04:55.613Z,99532.00
2022-10-21T13:07:33.817Z,99532.00
2022-10-21T13:10:01.535Z,99531.00
2022-10-21T13:12:33.645Z,99529.00
2022-10-21T13:15:24.635Z,99533.00
2022-10-21T13:17:57.124Z,99523.00
2022-10-21T13:20:24.980Z,99528.00
2022-10-21T13:23:03.316Z,99539.00
2022-10-21T13:25:35.432Z,99545.00
2022-10-21T13:28:15.282Z,99549.00
2022-10-21T13:30:49.163Z,99538.00
2022-10-21T13:33:20.329Z,99532.00
2022-10-21T13:35:49.296Z,99530.00
2022-10-21T13:38:29.700Z,99529.00
2022-10-21T13:41:18.904Z,99524.00
2022-10-21T13:43:51.861Z,99535.00
2022-10-21T13:46:23.954Z,99532.00
2022-10-21T13:48:51.834Z,99542.00
2022-10-21T13:51:21.856Z,99536.00
2022-10-21T13:53:52.982Z,99544.00
2022-10-21T13:56:28.558Z,99546.00
2022-10-21T13:58:56.469Z,99548.00
2022-10-21T14:01:28.705Z,99557.00
2022-10-21T14:04:16.214Z,99566.00
2022-10-21T14:06:48.308Z,99554.00
2022-10-21T14:09:29.638Z,99551.00
2022-10-21T14:12:03.921Z,99549.00
2022-10-21T14:14:34.091Z,99534.00
2022-10-21T14:17:05.907Z,99538.00
2022-10-21T14:19:38.016Z,99540.00
2022-10-21T14:24:47.710Z,99535.00
2022-10-21T14:27:30.500Z,99540.00
2022-10-21T14:30:01.224Z,99541.00
2022-10-21T14:32:29.143Z,99539.00
2022-10-21T14:35:09.155Z,99539.00
2022-10-21T14:37:51.388Z,99538.00
2022-10-21T14:40:26.481Z,99534.00
2022-10-21T14:42:55.799Z,99533.00
2022-10-21T14:45:30.635Z,99531.00
2022-10-21T14:48:17.953Z,99541.00
2022-10-21T14:50:55.096Z,99541.00
2022-10-21T14:53:24.164Z,99537.00
2022-10-21T14:55:58.947Z,99534.00
2022-10-21T14:58:30.698Z,99537.00
2022-10-21T15:01:12.958Z,99530.00
2022-10-21T15:03:43.610Z,99522.00
2022-10-21T15:06:18.435Z,99531.00
2022-10-21T15:08:58.052Z,99523.00
2022-10-21T15:11:29.442Z,99523.00
2022-10-21T15:14:13.319Z,99530.00
2022-10-21T15:17:04.199Z,99523.00
2022-10-21T15:20:03.233Z,99527.00
2022-10-21T15:22:34.316Z,99527.00
2022-10-21T15:25:08.409Z,99530.00
2022-10-21T15:27:42.533Z,99545.00
2022-10-21T15:30:21.946Z,99550.00
2022-10-21T15:32:50.539Z,99552.00
2022-10-21T15:35:20.291Z,99550.00
2022-10-21T15:37:51.774Z,99562.00
2022-10-21T15:40:21.364Z,99548.00
2022-10-21T15:42:49.429Z,99557.00
2022-10-21T15:45:24.772Z,99555.00
2022-10-21T15:47:53.993Z,99551.00
2022-10-21T15:50:24.739Z,99553.00
2022-10-21T15:52:52.837Z,99539.00
2022-10-21T15:55:23.828Z,99540.00
2022-10-21T15:57:51.695Z,99540.00
2022-10-21T16:00:21.718Z,99536.00
2022-10-21T16:02:51.673Z,99543.00
2022-10-21T16:05:21.748Z,99538.00
2022-10-21T16:07:49.898Z,99533.00
2022-10-21T16:10:29.764Z,99527.00
2022-10-21T16:12:58.229Z,99530.00
2022-10-21T16:15:26.572Z,99534.00
2022-10-21T16:17:57.620Z,99534.00
2022-10-21T16:20:29.591Z,99527.00
2022-10-21T16:23:00.637Z,99543.00
2022-10-21T16:25:31.483Z,99556.00
2022-10-21T16:27:59.760Z,99564.00
2022-10-21T16:30:39.571Z,99575.00
2022-10-21T16:33:07.699Z,99574.00
2022-10-21T16:35:35.683Z,99580.00
2022-10-21T16:38:03.571Z,99584.00
2022-10-21T16:40:35.177Z,99585.00
2022-10-21T16:43:03.188Z,99577.00
2022-10-21T16:45:32.444Z,99579.00
2022-10-21T16:48:03.473Z,99566.00
2022-10-21T16:50:48.769Z,99569.00
2022-10-21T16:53:17.292Z,99562.00
2022-10-21T16:55:45.025Z,99565.00
2022-10-21T16:58:12.828Z,99561.00
2022-10-21T17:00:41.535Z,99564.00
2022-10-21T17:03:12.669Z,99573.00
2022-10-21T17:05:43.406Z,99580.00
2022-10-21T17:08:11.315Z,99581.00
2022-10-21T17:10:39.227Z,99577.00
2022-10-21T17:13:07.122Z,99579.00
2022-10-21T17:15:34.760Z,99583.00
2022-10-21T17:18:02.610Z,99579.00
2022-10-21T17:20:30.961Z,99580.00
2022-10-21T17:22:59.824Z,99584.00
2022-10-21T17:25:29.253Z,99585.00
2022-10-21T17:27:57.998Z,99588.00
2022-10-21T17:30:26.966Z,99585.00
2022-10-21T17:32:54.908Z,99584.00
2022-10-21T17:35:22.805Z,99589.00
2022-10-21T17:37:51.604Z,99593.00
2022-10-21T17:40:22.619Z,99599.00
2022-10-21T17:42:50.936Z,99599.00
2022-10-21T17:45:19.514Z,99584.00
2022-10-21T17:47:47.370Z,99580.00
2022-10-21T17:50:18.622Z,99578.00
2022-10-21T17:52:46.471Z,99583.00
2022-10-21T17:55:16.445Z,99591.00
2022-10-21T17:57:45.119Z,99587.00
2022-10-21T18:00:15.182Z,99600.00
2022-10-21T18:02:43.795Z,99593.00
2022-10-21T18:05:11.692Z,99591.00
2022-10-21T18:07:40.057Z,99591.00
2022-10-21T18:10:08.995Z,99592.00
2022-10-21T18:12:37.139Z,99596.00
2022-10-21T18:15:05.603Z,99601.00
2022-10-21T18:17:34.659Z,99601.00
2022-10-21T18:20:02.486Z,99609.00
2022-10-21T18:22:30.595Z,99604.00
2022-10-21T18:24:58.466Z,99602.00
2022-10-21T18:27:26.794Z,99597.00
2022-10-21T18:29:55.599Z,99593.00
2022-10-21T18:32:23.394Z,99601.00
2022-10-21T18:34:51.710Z,99603.00
2022-10-21T18:37:19.749Z,99597.00
2022-10-21T18:39:49.272Z,99606.00
2022-10-21T18:42:19.541Z,99613.00
2022-10-21T18:44:47.854Z,99606.00
2022-10-21T18:47:17.538Z,99620.00
2022-10-21T18:49:45.298Z,99612.00
2022-10-21T18:52:13.548Z,99615.00
2022-10-21T18:54:41.260Z,99613.00
2022-10-21T18:57:12.961Z,99617.00
2022-10-21T18:59:40.945Z,99622.00
2022-10-21T19:02:11.627Z,99619.00
2022-10-21T19:04:41.855Z,99618.00
2022-10-21T19:07:09.546Z,99618.00
2022-10-21T19:09:37.239Z,99616.00
2022-10-21T19:12:05.162Z,99615.00
2022-10-21T19:14:34.131Z,99622.00
2022-10-21T19:17:45.099Z,99620.00
2022-10-21T19:20:13.980Z,99609.00
2022-10-21T19:22:41.956Z,99607.00
2022-10-21T19:25:10.032Z,99603.00
2022-10-21T19:27:38.183Z,99609.00
2022-10-21T19:30:06.524Z,99607.00
2022-10-21T19:32:34.343Z,99610.00
2022-10-21T19:35:02.284Z,99610.00
2022-10-21T19:37:29.927Z,99623.00
2022-10-21T19:39:57.993Z,99615.00
2022-10-21T19:42:25.720Z,99619.00
2022-10-21T19:44:53.518Z,99615.00
2022-10-21T19:47:21.237Z,99611.00
2022-10-21T19:49:49.190Z,99605.00
2022-10-21T19:52:17.032Z,99617.00
2022-10-21T19:54:45.036Z,99618.00
2022-10-21T19:57:12.797Z,99628.00
2022-10-21T19:59:40.567Z,99630.00
2022-10-21T20:02:10.546Z,99645.00
2022-10-21T20:04:38.620Z,99647.00
2022-10-21T20:07:06.326Z,99646.00
2022-10-21T20:09:37.841Z,99645.00
2022-10-21T20:12:07.041Z,99648.00
2022-10-21T20:14:34.897Z,99647.00
2022-10-21T20:17:02.606Z,99648.00
2022-10-21T20:19:30.516Z,99648.00
2022-10-21T20:21:58.266Z,99640.00
2022-10-21T20:24:26.201Z,99647.00
2022-10-21T20:26:58.379Z,99645.00
2022-10-21T20:29:29.161Z,99646.00
2022-10-21T20:31:56.803Z,99647.00
2022-10-21T20:34:25.253Z,99654.00
2022-10-21T20:36:53.207Z,99661.00
2022-10-21T20:39:21.232Z,99660.00
2022-10-21T20:41:49.154Z,99660.00
2022-10-21T20:44:17.772Z,99655.00
2022-10-21T20:46:46.819Z,99646.00
2022-10-21T20:49:14.607Z,99642.00
2022-10-21T20:51:42.954Z,99636.00
2022-10-21T20:54:16.116Z,99636.00
2022-10-21T20:56:57.093Z,99643.00
2022-10-21T20:59:25.406Z,99651.00
2022-10-21T21:01:53.440Z,99658.00
2022-10-21T21:04:23.724Z,99655.00
2022-10-21T21:06:51.824Z,99661.00
2022-10-21T21:09:44.057Z,99664.00
2022-10-21T21:12:09.376Z,99678.00
2022-10-21T21:14:37.210Z,99674.00
2022-10-21T21:17:05.283Z,99665.00
2022-10-21T21:19:33.520Z,99678.00
2022-10-21T21:22:01.442Z,99675.00
2022-10-21T21:24:29.251Z,99682.00
2022-10-21T21:26:57.094Z,99678.00
2022-10-21T21:29:24.679Z,99686.00
2022-10-21T21:31:52.529Z,99695.00
2022-10-21T21:34:20.150Z,99699.00
2022-10-21T21:36:48.053Z,99700.00
2022-10-21T21:41:48.427Z,99683.00
2022-10-21T21:44:16.189Z,99686.00
2022-10-21T21:46:44.351Z,99681.00
2022-10-21T21:49:12.274Z,99678.00
2022-10-21T21:51:40.065Z,99663.00
2022-10-21T21:54:08.051Z,99669.00
2022-10-21T21:56:36.392Z,99672.00
2022-10-21T21:59:04.799Z,99687.00
2022-10-21T22:01:32.759Z,99699.00
2022-10-21T22:04:01.376Z,99705.00
2022-10-21T22:06:31.976Z,99705.00
2022-10-21T22:09:00.520Z,99699.00
2022-10-21T22:11:31.605Z,99693.00
2022-10-21T22:14:00.097Z,99679.00
2022-10-21T22:16:30.506Z,99671.00
2022-10-21T22:18:59.868Z,99676.00
2022-10-21T22:21:28.347Z,99668.00
2022-10-21T22:23:56.054Z,99659.00
2022-10-21T22:26:24.017Z,99658.00
2022-10-21T22:28:51.778Z,99664.00
2022-10-21T22:31:27.198Z,99655.00
2022-10-21T22:33:58.816Z,99645.00
2022-10-21T22:36:27.575Z,99638.00
2022-10-21T22:38:56.111Z,99640.00
2022-10-21T22:41:24.125Z,99633.00
2022-10-21T22:43:51.913Z,99633.00
2022-10-21T22:46:35.298Z,99629.00
2022-10-21T22:49:05.066Z,99611.00
2022-10-21T22:51:35.560Z,99615.00
2022-10-21T22:54:03.374Z,99612.00
2022-10-21T22:56:32.258Z,99620.00
2022-10-21T22:59:00.573Z,99640.00
2022-10-21T23:01:30.652Z,99654.00
2022-10-21T23:04:02.926Z,99671.00
2022-10-21T23:06:34.948Z,99683.00
2022-10-21T23:09:04.285Z,99669.00
2022-10-21T23:11:32.572Z,99665.00
2022-10-21T23:14:08.368Z,99653.00
2022-10-21T23:16:37.205Z,99648.00
2022-10-21T23:19:06.340Z,99648.00
2022-10-21T23:21:34.555Z,99656.00
2022-10-21T23:24:02.506Z,99646.00
2022-10-21T23:26:30.427Z,99649.00
2022-10-21T23:28:58.141Z,99644.00
2022-10-21T23:31:25.890Z,99651.00
2022-10-21T23:33:54.081Z,99654.00
2022-10-21T23:36:22.035Z,99649.00
2022-10-21T23:38:49.839Z,99645.00
2022-10-21T23:41:17.730Z,99647.00
2022-10-21T23:43:45.436Z,99645.00
2022-10-21T23:46:13.391Z,99641.00
2022-10-21T23:48:41.353Z,99629.00
2022-10-21T23:51:09.126Z,99634.00
2022-10-21T23:53:37.010Z,99634.00
2022-10-21T23:56:05.753Z,99634.00
2022-10-21T23:58:33.637Z,99644.00
